createdAt,value
2019-03-22T00:00:26.971Z,101090.93
2019-03-22T00:02:55.743Z,101086.53
2019-03-22T00:05:24.594Z,101084.56
2019-03-22T00:07:53.470Z,101083.38
2019-03-22T00:10:22.205Z,101086.98
2019-03-22T00:12:50.928Z,101083.20
2019-03-22T00:15:19.907Z,101082.03
2019-03-22T00:17:48.634Z,101082.35
2019-03-22T00:20:17.356Z,101080.61
2019-03-22T00:22:46.219Z,101084.06
2019-03-22T00:25:14.959Z,101079.94
2019-03-22T00:27:43.682Z,101081.97
2019-03-22T00:30:13.054Z,101081.84
2019-03-22T00:32:41.781Z,101078.63
2019-03-22T00:35:10.800Z,101077.52
2019-03-22T00:37:39.696Z,101074.80
2019-03-22T00:40:09.823Z,101073.56
2019-03-22T00:42:38.538Z,101073.77
2019-03-22T00:45:09.417Z,101071.08
2019-03-22T00:47:38.214Z,101077.72
2019-03-22T00:50:08.235Z,101076.77
2019-03-22T00:52:37.017Z,101077.77
2019-03-22T00:55:06.348Z,101069.30
2019-03-22T00:57:35.067Z,101068.48
2019-03-22T01:00:05.418Z,101063.78
2019-03-22T01:02:34.142Z,101065.91
2019-03-22T01:05:02.866Z,101069.19
2019-03-22T01:07:31.663Z,101070.72
2019-03-22T01:10:00.396Z,101069.42
2019-03-22T01:12:29.110Z,101073.02
2019-03-22T01:14:58.066Z,101067.99
2019-03-22T01:17:26.798Z,101067.87
2019-03-22T01:19:55.520Z,101063.71
2019-03-22T01:22:24.437Z,101070.89
2019-03-22T01:24:53.154Z,101074.23
2019-03-22T01:27:21.876Z,101079.31
2019-03-22T01:29:50.729Z,101074.44
2019-03-22T01:32:19.456Z,101076.36
2019-03-22T01:34:48.183Z,101072.99
2019-03-22T01:37:17.155Z,101074.67
2019-03-22T01:39:45.885Z,101077.95
2019-03-22T01:42:14.607Z,101072.47
2019-03-22T01:44:43.609Z,101072.88
2019-03-22T01:47:12.332Z,101076.77
2019-03-22T01:49:41.065Z,101074.28
2019-03-22T01:52:09.862Z,101067.16
2019-03-22T01:54:38.585Z,101072.17
2019-03-22T01:57:07.315Z,101069.61
2019-03-22T01:59:36.158Z,101066.31
2019-03-22T02:02:04.884Z,101067.02
2019-03-22T02:04:33.605Z,101066.86
2019-03-22T02:07:02.384Z,101069.34
2019-03-22T02:09:31.111Z,101067.51
2019-03-22T02:11:59.846Z,101070.34
2019-03-22T02:14:28.741Z,101067.20
2019-03-22T02:16:57.477Z,101071.78
2019-03-22T02:19:26.205Z,101070.72
2019-03-22T02:21:55.007Z,101072.02
2019-03-22T02:24:23.728Z,101074.55
2019-03-22T02:26:52.457Z,101070.52
2019-03-22T02:29:21.330Z,101076.52
2019-03-22T02:31:50.063Z,101071.72
2019-03-22T02:34:18.786Z,101078.63
2019-03-22T02:36:47.565Z,101074.31
2019-03-22T02:39:16.302Z,101078.08
2019-03-22T02:41:45.092Z,101078.72
2019-03-22T02:44:13.945Z,101084.19
2019-03-22T02:46:42.673Z,101079.23
2019-03-22T02:49:11.402Z,101088.00
2019-03-22T02:51:40.271Z,101081.83
2019-03-22T02:54:09.002Z,101079.21
2019-03-22T02:56:37.724Z,101081.23
2019-03-22T02:59:06.572Z,101086.56
2019-03-22T03:01:35.287Z,101086.48
2019-03-22T03:04:04.219Z,101085.48
2019-03-22T03:06:32.987Z,101083.38
2019-03-22T03:09:01.710Z,101085.98
2019-03-22T03:11:30.465Z,101086.41
2019-03-22T03:13:59.221Z,101091.25
2019-03-22T03:16:27.950Z,101090.52
2019-03-22T03:18:56.682Z,101085.05
2019-03-22T03:21:25.538Z,101089.73
2019-03-22T03:23:54.259Z,101087.14
2019-03-22T03:26:22.987Z,101087.48
2019-03-22T03:28:51.837Z,101089.58
2019-03-22T03:31:20.557Z,101085.78
2019-03-22T03:33:49.313Z,101094.23
2019-03-22T03:36:18.075Z,101096.69
2019-03-22T03:38:46.837Z,101101.28
2019-03-22T03:41:15.598Z,101098.95
2019-03-22T03:43:44.494Z,101103.05
2019-03-22T03:46:13.215Z,101095.91
2019-03-22T03:48:41.932Z,101102.96
2019-03-22T03:51:10.720Z,101101.41
2019-03-22T03:53:39.449Z,101098.83
2019-03-22T03:56:08.184Z,101094.72
2019-03-22T03:58:51.220Z,101098.37
2019-03-22T04:01:07.411Z,101092.49
2019-03-22T04:03:36.136Z,101094.06
2019-03-22T04:06:04.995Z,101090.58
2019-03-22T04:08:33.734Z,101095.52
2019-03-22T04:11:02.461Z,101086.12
2019-03-22T04:13:31.334Z,101086.03
2019-03-22T04:16:00.058Z,101094.34
2019-03-22T04:18:28.782Z,101092.08
2019-03-22T04:20:57.583Z,101101.23
2019-03-22T04:23:26.318Z,101101.93
2019-03-22T04:25:55.034Z,101100.20
2019-03-22T04:28:23.950Z,101096.08
2019-03-22T04:30:52.687Z,101099.55
2019-03-22T04:33:21.415Z,101092.18
2019-03-22T04:35:52.121Z,101104.69
2019-03-22T04:38:21.987Z,101105.48
2019-03-22T04:40:50.727Z,101100.73
2019-03-22T04:43:19.744Z,101109.50
2019-03-22T04:45:49.673Z,101112.89
2019-03-22T04:48:21.309Z,101110.09
2019-03-22T04:50:51.871Z,101108.80
2019-03-22T04:53:23.506Z,101119.84
2019-03-22T04:55:55.146Z,101117.59
2019-03-22T04:58:25.023Z,101113.64
2019-03-22T05:00:56.267Z,101111.45
2019-03-22T05:03:27.201Z,101129.16
2019-03-22T05:05:58.999Z,101126.64
2019-03-22T05:08:30.635Z,101116.94
2019-03-22T05:11:02.367Z,101119.59
2019-03-22T05:13:33.259Z,101123.57
2019-03-22T05:16:03.168Z,101121.06
2019-03-22T05:18:33.495Z,101120.80
2019-03-22T05:21:03.584Z,101124.51
2019-03-22T05:23:33.807Z,101124.46
2019-03-22T05:26:04.638Z,101120.30
2019-03-22T05:28:34.117Z,101119.62
2019-03-22T05:31:17.676Z,101118.44
2019-03-22T05:33:46.546Z,101123.66
2019-03-22T05:36:15.281Z,101119.42
2019-03-22T05:38:44.013Z,101122.14
2019-03-22T05:41:13.866Z,101124.33
2019-03-22T05:43:42.680Z,101121.12
2019-03-22T05:46:11.398Z,101117.20
2019-03-22T05:48:40.256Z,101126.95
2019-03-22T05:51:08.983Z,101119.38
2019-03-22T05:53:37.713Z,101126.12
2019-03-22T05:56:06.612Z,101129.78
2019-03-22T05:58:35.352Z,101138.41
2019-03-22T06:01:04.085Z,101138.11
2019-03-22T06:03:32.935Z,101140.75
2019-03-22T06:06:02.019Z,101137.09
2019-03-22T06:08:30.754Z,101140.17
2019-03-22T06:10:59.519Z,101138.41
2019-03-22T06:13:28.245Z,101127.46
2019-03-22T06:15:56.978Z,101126.36
2019-03-22T06:18:25.848Z,101128.28
2019-03-22T06:20:54.570Z,101121.56
2019-03-22T06:23:23.294Z,101122.33
2019-03-22T06:25:52.059Z,101122.64
2019-03-22T06:28:20.786Z,101123.97
2019-03-22T06:30:49.713Z,101127.30
2019-03-22T06:33:18.602Z,101130.14
2019-03-22T06:35:47.390Z,101123.39
2019-03-22T06:38:16.143Z,101114.66
2019-03-22T06:40:44.988Z,101112.69
2019-03-22T06:43:13.727Z,101119.23
2019-03-22T06:45:42.449Z,101120.31
2019-03-22T06:48:11.225Z,101119.84
2019-03-22T06:50:39.949Z,101119.40
2019-03-22T06:53:08.779Z,101119.41
2019-03-22T06:55:37.555Z,101117.83
2019-03-22T06:58:06.281Z,101117.30
2019-03-22T07:00:35.018Z,101113.80
2019-03-22T07:03:03.795Z,101112.95
2019-03-22T07:05:32.519Z,101115.09
2019-03-22T07:08:01.250Z,101110.59
2019-03-22T07:10:30.270Z,101111.23
2019-03-22T07:12:59.007Z,101111.45
2019-03-22T07:15:27.736Z,101112.75
2019-03-22T07:17:56.507Z,101114.33
2019-03-22T07:20:25.249Z,101112.16
2019-03-22T07:22:53.977Z,101111.30
2019-03-22T07:25:22.991Z,101109.53
2019-03-22T07:27:51.716Z,101111.19
2019-03-22T07:30:20.645Z,101110.42
2019-03-22T07:32:49.493Z,101111.80
2019-03-22T07:35:18.217Z,101114.31
2019-03-22T07:37:46.941Z,101120.34
2019-03-22T07:40:15.723Z,101117.41
2019-03-22T07:42:44.444Z,101117.87
2019-03-22T07:45:13.264Z,101110.81
2019-03-22T07:47:42.124Z,101109.98
2019-03-22T07:50:12.939Z,101108.89
2019-03-22T07:52:41.666Z,101107.12
2019-03-22T07:55:10.708Z,101104.91
2019-03-22T07:57:39.423Z,101105.40
2019-03-22T08:00:13.385Z,101101.83
2019-03-22T08:02:42.237Z,101101.53
2019-03-22T08:05:11.064Z,101105.19
2019-03-22T08:07:39.794Z,101103.79
2019-03-22T08:10:09.703Z,101101.97
2019-03-22T08:12:38.408Z,101102.30
2019-03-22T08:15:08.805Z,101097.55
2019-03-22T08:17:37.778Z,101093.41
2019-03-22T08:20:07.382Z,101092.73
2019-03-22T08:22:36.158Z,101084.95
2019-03-22T08:25:05.321Z,101093.42
2019-03-22T08:27:34.049Z,101088.76
2019-03-22T08:30:02.790Z,101087.71
2019-03-22T08:32:31.576Z,101083.77
2019-03-22T08:35:00.338Z,101086.03
2019-03-22T08:37:29.118Z,101075.02
2019-03-22T08:39:57.993Z,101076.02
2019-03-22T08:42:26.727Z,101072.93
2019-03-22T08:44:55.463Z,101069.48
2019-03-22T08:47:34.023Z,101062.16
2019-03-22T08:49:54.667Z,101060.98
2019-03-22T08:52:23.438Z,101059.89
2019-03-22T08:54:52.199Z,101053.31
2019-03-22T08:57:20.932Z,101046.91
2019-03-22T08:59:49.645Z,101044.48
2019-03-22T09:02:18.437Z,101037.25
2019-03-22T09:04:47.125Z,101031.35
2019-03-22T09:07:15.856Z,101032.97
2019-03-22T09:09:44.758Z,101027.09
2019-03-22T09:12:13.494Z,101019.41
2019-03-22T09:14:42.311Z,101023.56
2019-03-22T09:17:11.116Z,101014.86
2019-03-22T09:19:39.918Z,101015.56
2019-03-22T09:22:08.701Z,101004.74
2019-03-22T09:24:39.368Z,101015.14
2019-03-22T09:27:08.077Z,101009.78
2019-03-22T09:29:36.795Z,101002.80
2019-03-22T09:32:05.625Z,101011.39
2019-03-22T09:34:34.426Z,101004.56
2019-03-22T09:37:03.157Z,101002.38
2019-03-22T09:39:31.900Z,100993.48
2019-03-22T09:42:00.622Z,100998.92
2019-03-22T09:44:42.407Z,100998.02
2019-03-22T09:46:59.902Z,100994.79
2019-03-22T09:49:28.605Z,100992.84
2019-03-22T09:51:57.363Z,100988.33
2019-03-22T09:54:26.346Z,100980.67
2019-03-22T09:56:55.122Z,100978.27
2019-03-22T09:59:23.827Z,100974.91
2019-03-22T10:01:52.701Z,100968.69
2019-03-22T10:04:21.433Z,100974.28
2019-03-22T10:06:50.131Z,100965.09
2019-03-22T10:09:19.118Z,100962.19
2019-03-22T10:11:47.867Z,100954.39
2019-03-22T10:14:16.579Z,100957.84
2019-03-22T10:16:47.615Z,100954.51
2019-03-22T10:19:15.964Z,100953.91
2019-03-22T10:21:44.847Z,100950.75
2019-03-22T10:24:13.652Z,100949.21
2019-03-22T10:26:42.445Z,100948.78
2019-03-22T10:29:11.176Z,100944.20
2019-03-22T10:31:39.981Z,100939.14
2019-03-22T10:34:08.787Z,100932.84
2019-03-22T10:36:37.543Z,100927.75
2019-03-22T10:39:08.828Z,100928.76
2019-03-22T10:41:37.544Z,100930.66
2019-03-22T10:44:06.370Z,100920.33
2019-03-22T10:46:35.331Z,100918.47
2019-03-22T10:49:04.212Z,100912.11
2019-03-22T10:51:32.967Z,100915.56
2019-03-22T10:54:01.856Z,100904.99
2019-03-22T10:56:30.616Z,100903.38
2019-03-22T10:58:59.346Z,100891.78
2019-03-22T11:01:28.227Z,100884.69
2019-03-22T11:03:57.060Z,100875.95
2019-03-22T11:06:26.723Z,100874.70
2019-03-22T11:08:55.907Z,100867.86
2019-03-22T11:11:24.634Z,100865.66
2019-03-22T11:13:53.448Z,100864.09
2019-03-22T11:16:22.212Z,100857.47
2019-03-22T11:18:50.942Z,100846.45
2019-03-22T11:21:19.669Z,100845.44
2019-03-22T11:23:48.523Z,100843.89
2019-03-22T11:26:17.251Z,100843.27
2019-03-22T11:28:45.973Z,100840.22
2019-03-22T11:31:14.832Z,100835.81
2019-03-22T11:33:43.561Z,100833.05
2019-03-22T11:36:12.289Z,100825.67
2019-03-22T11:38:41.058Z,100819.73
2019-03-22T11:41:09.769Z,100816.64
2019-03-22T11:43:38.487Z,100809.77
2019-03-22T11:46:07.487Z,100803.74
2019-03-22T11:48:36.209Z,100793.20
2019-03-22T11:51:05.531Z,100797.78
2019-03-22T11:53:34.573Z,100791.56
2019-03-22T11:56:03.302Z,100791.56
2019-03-22T11:58:32.019Z,100783.83
2019-03-22T12:01:00.883Z,100782.78
2019-03-22T12:03:29.618Z,100776.72
2019-03-22T12:05:58.338Z,100773.53
2019-03-22T12:08:27.224Z,100775.61
2019-03-22T12:10:55.942Z,100770.59
2019-03-22T12:13:24.783Z,100759.75
2019-03-22T12:15:53.557Z,100762.34
2019-03-22T12:18:22.275Z,100751.81
2019-03-22T12:20:51.001Z,100757.55
2019-03-22T12:23:19.856Z,100752.30
2019-03-22T12:25:48.580Z,100742.69
2019-03-22T12:28:17.303Z,100741.27
2019-03-22T12:30:46.111Z,100746.88
2019-03-22T12:33:14.830Z,100740.30
2019-03-22T12:35:43.566Z,100734.77
2019-03-22T12:38:12.419Z,100732.28
2019-03-22T12:40:41.145Z,100731.03
2019-03-22T12:43:09.882Z,100731.94
2019-03-22T12:45:38.655Z,100727.09
2019-03-22T12:48:07.359Z,100719.56
2019-03-22T12:50:36.095Z,100716.92
2019-03-22T12:53:05.167Z,100706.14
2019-03-22T12:55:33.895Z,100714.11
2019-03-22T12:58:02.614Z,100696.34
2019-03-22T13:00:31.458Z,100696.80
2019-03-22T13:03:00.184Z,100699.27
2019-03-22T13:05:28.917Z,100692.77
2019-03-22T13:07:57.720Z,100684.36
2019-03-22T13:10:27.547Z,100679.69
2019-03-22T13:12:56.564Z,100679.92
2019-03-22T13:15:25.326Z,100679.19
2019-03-22T13:17:54.056Z,100668.78
2019-03-22T13:20:22.782Z,100662.78
2019-03-22T13:22:51.663Z,100655.72
2019-03-22T13:25:21.310Z,100656.08
2019-03-22T13:27:50.202Z,100658.87
2019-03-22T13:30:30.998Z,100650.37
2019-03-22T13:32:59.946Z,100646.78
2019-03-22T13:35:28.670Z,100649.88
2019-03-22T13:37:57.545Z,100647.61
2019-03-22T13:40:26.273Z,100645.84
2019-03-22T13:42:54.999Z,100643.77
2019-03-22T13:45:23.910Z,100640.51
2019-03-22T13:47:52.628Z,100629.63
2019-03-22T13:50:21.452Z,100627.94
2019-03-22T13:52:50.259Z,100625.64
2019-03-22T13:55:19.057Z,100623.84
2019-03-22T13:57:47.781Z,100617.66
2019-03-22T14:00:17.933Z,100614.33
2019-03-22T14:02:46.656Z,100611.86
2019-03-22T14:05:15.463Z,100604.47
2019-03-22T14:07:44.407Z,100608.22
2019-03-22T14:10:33.017Z,100604.77
2019-03-22T14:13:03.235Z,100603.20
2019-03-22T14:15:31.957Z,100604.09
2019-03-22T14:18:00.994Z,100606.21
2019-03-22T14:20:30.548Z,100601.95
2019-03-22T14:22:59.286Z,100603.48
2019-03-22T14:25:28.012Z,100604.89
2019-03-22T14:27:56.897Z,100602.59
2019-03-22T14:30:25.626Z,100601.34
2019-03-22T14:32:58.115Z,100598.80
2019-03-22T14:35:28.490Z,100597.55
2019-03-22T14:37:57.474Z,100595.35
2019-03-22T14:40:26.201Z,100588.06
2019-03-22T14:42:54.984Z,100586.74
2019-03-22T14:45:23.715Z,100577.22
2019-03-22T14:47:52.439Z,100583.00
2019-03-22T14:50:21.225Z,100580.37
2019-03-22T14:52:49.957Z,100580.50
2019-03-22T14:55:18.683Z,100577.52
2019-03-22T14:57:49.943Z,100573.44
2019-03-22T15:00:17.995Z,100576.23
2019-03-22T15:02:46.712Z,100574.45
2019-03-22T15:05:15.473Z,100570.09
2019-03-22T15:07:44.195Z,100573.97
2019-03-22T15:10:13.622Z,100572.98
2019-03-22T15:12:42.393Z,100577.72
2019-03-22T15:15:21.844Z,100577.53
2019-03-22T15:18:04.534Z,100578.77
2019-03-22T15:20:44.120Z,100576.11
2019-03-22T15:23:26.816Z,100576.97
2019-03-22T15:26:13.557Z,100571.83
2019-03-22T15:28:43.951Z,100575.38
2019-03-22T15:31:31.015Z,100574.35
2019-03-22T15:34:04.866Z,100567.64
2019-03-22T15:36:44.266Z,100573.39
2019-03-22T15:39:17.715Z,100564.90
2019-03-22T15:41:46.603Z,100561.39
2019-03-22T15:44:15.409Z,100564.47
2019-03-22T15:46:44.308Z,100565.34
2019-03-22T15:49:13.035Z,100564.10
2019-03-22T15:51:41.767Z,100561.81
2019-03-22T15:54:10.656Z,100559.80
2019-03-22T15:56:39.383Z,100558.18
2019-03-22T15:59:08.119Z,100564.42
2019-03-22T16:01:36.990Z,100564.64
2019-03-22T16:04:05.729Z,100563.24
2019-03-22T16:06:34.456Z,100557.53
2019-03-22T16:09:04.936Z,100571.44
2019-03-22T16:11:33.672Z,100572.37
2019-03-22T16:14:02.400Z,100568.09
2019-03-22T16:16:31.576Z,100573.38
2019-03-22T16:19:00.304Z,100571.89
2019-03-22T16:21:29.032Z,100571.36
2019-03-22T16:23:58.493Z,100573.13
2019-03-22T16:26:27.210Z,100565.27
2019-03-22T16:28:55.939Z,100563.94
2019-03-22T16:31:25.166Z,100565.23
2019-03-22T16:33:54.700Z,100568.59
2019-03-22T16:36:23.877Z,100567.59
2019-03-22T16:38:52.824Z,100563.73
2019-03-22T16:41:21.646Z,100567.98
2019-03-22T16:43:50.460Z,100568.96
2019-03-22T16:46:19.464Z,100568.61
2019-03-22T16:48:48.299Z,100571.75
2019-03-22T16:51:17.105Z,100567.09
2019-03-22T16:53:46.167Z,100567.80
2019-03-22T16:56:14.985Z,100564.70
2019-03-22T16:58:44.907Z,100564.02
2019-03-22T17:01:13.799Z,100559.70
2019-03-22T17:03:42.606Z,100567.69
2019-03-22T17:06:11.414Z,100572.41
2019-03-22T17:08:43.031Z,100567.74
2019-03-22T17:11:11.854Z,100567.22
2019-03-22T17:13:41.761Z,100575.63
2019-03-22T17:16:10.590Z,100573.99
2019-03-22T17:18:39.413Z,100565.20
2019-03-22T17:21:08.381Z,100573.56
2019-03-22T17:23:37.194Z,100574.52
2019-03-22T17:26:06.012Z,100572.66
2019-03-22T17:28:35.230Z,100567.28
2019-03-22T17:31:04.055Z,100561.76
2019-03-22T17:33:32.871Z,100563.45
2019-03-22T17:36:01.775Z,100566.40
2019-03-22T17:38:30.591Z,100564.03
2019-03-22T17:40:59.448Z,100567.77
2019-03-22T17:43:28.441Z,100563.22
2019-03-22T17:45:57.249Z,100567.08
2019-03-22T17:48:26.062Z,100566.88
2019-03-22T17:50:54.950Z,100561.99
2019-03-22T17:53:23.779Z,100569.67
2019-03-22T17:55:52.605Z,100563.34
2019-03-22T17:58:21.731Z,100572.23
2019-03-22T18:00:50.735Z,100570.81
2019-03-22T18:03:19.553Z,100571.57
2019-03-22T18:05:48.491Z,100566.22
2019-03-22T18:08:17.313Z,100572.86
2019-03-22T18:10:46.138Z,100574.55
2019-03-22T18:13:15.115Z,100570.64
2019-03-22T18:15:43.917Z,100568.86
2019-03-22T18:18:12.726Z,100570.75
2019-03-22T18:20:41.578Z,100569.57
2019-03-22T18:23:10.390Z,100564.64
2019-03-22T18:25:39.198Z,100565.58
2019-03-22T18:28:08.168Z,100570.17
2019-03-22T18:30:36.988Z,100570.34
2019-03-22T18:33:05.801Z,100563.64
2019-03-22T18:35:34.824Z,100572.63
2019-03-22T18:38:03.631Z,100577.88
2019-03-22T18:40:32.447Z,100576.69
2019-03-22T18:43:01.808Z,100579.34
2019-03-22T18:45:30.625Z,100583.30
2019-03-22T18:47:59.434Z,100581.22
2019-03-22T18:50:28.381Z,100569.20
2019-03-22T18:52:57.206Z,100570.56
2019-03-22T18:55:26.005Z,100573.70
2019-03-22T18:57:55.071Z,100570.83
2019-03-22T19:00:23.984Z,100570.05
2019-03-22T19:02:52.819Z,100573.50
2019-03-22T19:05:21.739Z,100580.59
2019-03-22T19:07:50.561Z,100580.06
2019-03-22T19:10:19.384Z,100582.95
2019-03-22T19:12:48.605Z,100576.13
2019-03-22T19:15:17.503Z,100579.77
2019-03-22T19:17:46.322Z,100584.77
2019-03-22T19:20:16.919Z,100585.00
2019-03-22T19:22:45.734Z,100582.66
2019-03-22T19:25:14.668Z,100576.91
2019-03-22T19:27:43.598Z,100583.70
2019-03-22T19:30:16.954Z,100579.84
2019-03-22T19:32:51.526Z,100580.39
2019-03-22T19:35:24.808Z,100569.95
2019-03-22T19:37:58.706Z,100573.69
2019-03-22T19:40:28.995Z,100576.59
2019-03-22T19:42:57.804Z,100575.37
2019-03-22T19:45:27.017Z,100575.91
2019-03-22T19:47:55.835Z,100573.05
2019-03-22T19:50:24.643Z,100574.36
2019-03-22T19:52:53.525Z,100579.33
2019-03-22T19:55:22.340Z,100580.91
2019-03-22T19:57:51.147Z,100583.00
2019-03-22T20:00:20.971Z,100581.45
2019-03-22T20:02:49.798Z,100580.39
2019-03-22T20:05:24.694Z,100579.63
2019-03-22T20:07:53.488Z,100584.06
2019-03-22T20:10:22.298Z,100574.16
2019-03-22T20:12:51.271Z,100575.19
2019-03-22T20:15:20.077Z,100581.44
2019-03-22T20:17:48.875Z,100580.14
2019-03-22T20:20:17.927Z,100581.16
2019-03-22T20:22:46.740Z,100574.62
2019-03-22T20:25:15.540Z,100577.68
2019-03-22T20:27:44.413Z,100575.56
2019-03-22T20:30:17.469Z,100572.94
2019-03-22T20:32:46.272Z,100577.08
2019-03-22T20:35:16.962Z,100578.63
2019-03-22T20:37:45.890Z,100577.58
2019-03-22T20:40:19.180Z,100572.38
2019-03-22T20:42:48.359Z,100565.87
2019-03-22T20:45:24.228Z,100566.64
2019-03-22T20:47:48.143Z,100562.75
2019-03-22T20:50:17.178Z,100557.52
2019-03-22T20:52:45.993Z,100559.43
2019-03-22T20:55:14.896Z,100563.22
2019-03-22T20:57:44.690Z,100563.16
2019-03-22T21:00:14.895Z,100569.24
2019-03-22T21:02:43.709Z,100564.91
2019-03-22T21:05:13.065Z,100562.41
2019-03-22T21:07:41.893Z,100559.52
2019-03-22T21:10:12.233Z,100567.84
2019-03-22T21:12:41.566Z,100572.09
2019-03-22T21:15:11.895Z,100581.26
2019-03-22T21:17:40.625Z,100576.09
2019-03-22T21:20:11.416Z,100586.55
2019-03-22T21:22:40.144Z,100584.07
2019-03-22T21:25:10.483Z,100584.81
2019-03-22T21:27:39.677Z,100575.63
2019-03-22T21:30:10.665Z,100576.03
2019-03-22T21:32:45.523Z,100576.35
2019-03-22T21:35:22.561Z,100584.03
2019-03-22T21:37:44.552Z,100592.79
2019-03-22T21:40:13.273Z,100585.64
2019-03-22T21:42:42.148Z,100584.41
2019-03-22T21:45:11.574Z,100585.75
2019-03-22T21:47:40.406Z,100583.64
2019-03-22T21:50:10.403Z,100584.95
2019-03-22T21:52:39.144Z,100582.86
2019-03-22T21:55:09.547Z,100584.67
2019-03-22T21:57:38.783Z,100587.25
2019-03-22T22:00:13.000Z,100586.66
2019-03-22T22:02:41.729Z,100577.73
2019-03-22T22:05:10.877Z,100581.26
2019-03-22T22:07:39.609Z,100575.76
2019-03-22T22:10:09.333Z,100579.59
2019-03-22T22:12:38.391Z,100572.22
2019-03-22T22:15:11.787Z,100574.75
2019-03-22T22:17:41.479Z,100572.40
2019-03-22T22:20:11.180Z,100572.87
2019-03-22T22:22:40.593Z,100581.05
2019-03-22T22:25:09.518Z,100579.73
2019-03-22T22:27:38.333Z,100586.28
2019-03-22T22:30:09.056Z,100575.84
2019-03-22T22:32:37.779Z,100583.31
2019-03-22T22:35:09.927Z,100590.59
2019-03-22T22:37:38.662Z,100591.91
2019-03-22T22:40:12.266Z,100593.94
2019-03-22T22:42:41.507Z,100594.41
2019-03-22T22:45:13.149Z,100591.48
2019-03-22T22:47:41.974Z,100594.14
2019-03-22T22:50:12.093Z,100593.88
2019-03-22T22:52:44.465Z,100587.59
2019-03-22T22:55:13.292Z,100583.59
2019-03-22T22:57:42.147Z,100591.08
2019-03-22T23:00:18.650Z,100589.19
2019-03-22T23:02:47.759Z,100587.00
2019-03-22T23:05:16.489Z,100593.86
2019-03-22T23:07:45.227Z,100595.20
2019-03-22T23:10:14.179Z,100588.39
2019-03-22T23:12:43.783Z,100591.55
2019-03-22T23:15:12.505Z,100597.98
2019-03-22T23:17:41.471Z,100596.08
2019-03-22T23:20:11.099Z,100601.81
2019-03-22T23:22:39.819Z,100596.06
2019-03-22T23:25:08.877Z,100588.23
2019-03-22T23:27:38.009Z,100597.35
2019-03-22T23:30:11.933Z,100594.21
2019-03-22T23:32:41.727Z,100589.62
2019-03-22T23:35:11.369Z,100600.13
2019-03-22T23:37:40.092Z,100602.22
2019-03-22T23:40:09.291Z,100604.98
2019-03-22T23:42:38.013Z,100598.45
2019-03-22T23:45:08.954Z,100590.19
2019-03-22T23:47:37.800Z,100588.69
2019-03-22T23:50:14.648Z,100587.72
2019-03-22T23:52:43.500Z,100583.64
2019-03-22T23:55:12.774Z,100583.58
2019-03-22T23:57:41.494Z,100583.92
